sensor_id;sensor_type;location;lat;lon;timestamp;P1;durP1;ratioP1;P2;durP2;ratioP2
27558;SDS011;15002;52.028;5.670;2022-11-20T00:00:47;12.63;;;7.18;;
27558;SDS011;15002;52.028;5.670;2022-11-20T00:03:13;19.83;;;7.57;;
27558;SDS011;15002;52.028;5.670;2022-11-20T00:05:38;13.27;;;7.63;;
27558;SDS011;15002;52.028;5.670;2022-11-20T00:08:04;12.52;;;6.93;;
27558;SDS011;15002;52.028;5.670;2022-11-20T00:10:30;16.50;;;7.72;;
27558;SDS011;15002;52.028;5.670;2022-11-20T00:12:57;14.70;;;7.53;;
27558;SDS011;15002;52.028;5.670;2022-11-20T00:15:23;14.05;;;7.03;;
27558;SDS011;15002;52.028;5.670;2022-11-20T00:17:49;12.20;;;7.18;;
27558;SDS011;15002;52.028;5.670;2022-11-20T00:20:15;12.68;;;7.85;;
27558;SDS011;15002;52.028;5.670;2022-11-20T00:22:41;12.43;;;8.07;;
27558;SDS011;15002;52.028;5.670;2022-11-20T00:25:06;14.90;;;7.70;;
27558;SDS011;15002;52.028;5.670;2022-11-20T00:27:32;13.35;;;7.35;;
27558;SDS011;15002;52.028;5.670;2022-11-20T00:29:58;11.63;;;6.53;;
27558;SDS011;15002;52.028;5.670;2022-11-20T00:32:23;14.25;;;7.13;;
27558;SDS011;15002;52.028;5.670;2022-11-20T00:34:49;10.98;;;6.63;;
27558;SDS011;15002;52.028;5.670;2022-11-20T00:37:14;13.18;;;7.10;;
27558;SDS011;15002;52.028;5.670;2022-11-20T00:39:40;13.40;;;7.30;;
27558;SDS011;15002;52.028;5.670;2022-11-20T00:42:06;12.45;;;7.65;;
27558;SDS011;15002;52.028;5.670;2022-11-20T00:44:31;14.60;;;7.95;;
27558;SDS011;15002;52.028;5.670;2022-11-20T00:46:57;12.07;;;7.28;;
27558;SDS011;15002;52.028;5.670;2022-11-20T00:49:23;12.40;;;6.88;;
27558;SDS011;15002;52.028;5.670;2022-11-20T00:51:48;12.27;;;7.32;;
27558;SDS011;15002;52.028;5.670;2022-11-20T00:54:14;13.70;;;7.97;;
27558;SDS011;15002;52.028;5.670;2022-11-20T00:56:39;13.98;;;7.10;;
27558;SDS011;15002;52.028;5.670;2022-11-20T00:59:05;13.25;;;7.38;;
27558;SDS011;15002;52.028;5.670;2022-11-20T01:01:31;11.65;;;7.15;;
27558;SDS011;15002;52.028;5.670;2022-11-20T01:03:58;11.43;;;7.47;;
27558;SDS011;15002;52.028;5.670;2022-11-20T01:06:28;14.57;;;8.52;;
27558;SDS011;15002;52.028;5.670;2022-11-20T01:08:57;13.65;;;7.60;;
27558;SDS011;15002;52.028;5.670;2022-11-20T01:11:28;17.48;;;8.23;;
27558;SDS011;15002;52.028;5.670;2022-11-20T01:13:59;15.80;;;7.93;;
27558;SDS011;15002;52.028;5.670;2022-11-20T01:16:31;13.20;;;8.27;;
27558;SDS011;15002;52.028;5.670;2022-11-20T01:18:59;14.98;;;8.70;;
27558;SDS011;15002;52.028;5.670;2022-11-20T01:21:28;13.75;;;8.23;;
27558;SDS011;15002;52.028;5.670;2022-11-20T01:23:56;13.20;;;7.63;;
27558;SDS011;15002;52.028;5.670;2022-11-20T01:26:29;14.07;;;8.23;;
27558;SDS011;15002;52.028;5.670;2022-11-20T01:28:57;13.10;;;7.90;;
27558;SDS011;15002;52.028;5.670;2022-11-20T01:31:28;13.38;;;7.78;;
27558;SDS011;15002;52.028;5.670;2022-11-20T01:33:56;15.57;;;8.18;;
27558;SDS011;15002;52.028;5.670;2022-11-20T01:36:24;14.07;;;7.65;;
27558;SDS011;15002;52.028;5.670;2022-11-20T01:38:52;18.13;;;8.25;;
27558;SDS011;15002;52.028;5.670;2022-11-20T01:41:19;13.15;;;7.38;;
27558;SDS011;15002;52.028;5.670;2022-11-20T01:44:05;14.15;;;7.70;;
27558;SDS011;15002;52.028;5.670;2022-11-20T01:46:32;16.20;;;8.23;;
27558;SDS011;15002;52.028;5.670;2022-11-20T01:49:26;14.05;;;8.38;;
27558;SDS011;15002;52.028;5.670;2022-11-20T01:52:07;14.18;;;7.97;;
27558;SDS011;15002;52.028;5.670;2022-11-20T01:54:40;13.90;;;8.45;;
27558;SDS011;15002;52.028;5.670;2022-11-20T01:57:10;15.93;;;7.47;;
27558;SDS011;15002;52.028;5.670;2022-11-20T01:59:37;13.30;;;7.60;;
27558;SDS011;15002;52.028;5.670;2022-11-20T02:02:07;12.37;;;8.23;;
27558;SDS011;15002;52.028;5.670;2022-11-20T02:04:32;15.77;;;8.52;;
27558;SDS011;15002;52.028;5.670;2022-11-20T02:07:01;13.82;;;7.80;;
27558;SDS011;15002;52.028;5.670;2022-11-20T02:09:29;13.43;;;7.68;;
27558;SDS011;15002;52.028;5.670;2022-11-20T02:11:55;13.25;;;8.20;;
27558;SDS011;15002;52.028;5.670;2022-11-20T02:14:21;17.67;;;7.55;;
27558;SDS011;15002;52.028;5.670;2022-11-20T02:16:48;14.88;;;7.32;;
27558;SDS011;15002;52.028;5.670;2022-11-20T02:19:35;16.05;;;8.32;;
27558;SDS011;15002;52.028;5.670;2022-11-20T02:24:50;14.10;;;8.13;;
27558;SDS011;15002;52.028;5.670;2022-11-20T02:27:17;16.17;;;9.30;;
27558;SDS011;15002;52.028;5.670;2022-11-20T02:29:47;16.02;;;8.55;;
27558;SDS011;15002;52.028;5.670;2022-11-20T02:34:47;15.18;;;8.23;;
27558;SDS011;15002;52.028;5.670;2022-11-20T02:37:13;14.38;;;8.40;;
27558;SDS011;15002;52.028;5.670;2022-11-20T02:39:39;14.63;;;8.07;;
27558;SDS011;15002;52.028;5.670;2022-11-20T02:42:06;18.73;;;8.45;;
27558;SDS011;15002;52.028;5.670;2022-11-20T02:44:32;14.93;;;8.10;;
27558;SDS011;15002;52.028;5.670;2022-11-20T02:46:58;16.50;;;8.02;;
27558;SDS011;15002;52.028;5.670;2022-11-20T02:49:24;14.38;;;7.53;;
27558;SDS011;15002;52.028;5.670;2022-11-20T02:51:50;15.07;;;7.68;;
27558;SDS011;15002;52.028;5.670;2022-11-20T02:54:16;16.30;;;8.00;;
27558;SDS011;15002;52.028;5.670;2022-11-20T02:56:42;13.68;;;8.55;;
27558;SDS011;15002;52.028;5.670;2022-11-20T02:59:08;15.98;;;7.40;;
27558;SDS011;15002;52.028;5.670;2022-11-20T03:01:34;17.77;;;8.18;;
27558;SDS011;15002;52.028;5.670;2022-11-20T03:04:00;13.93;;;7.47;;
27558;SDS011;15002;52.028;5.670;2022-11-20T03:06:25;17.30;;;7.07;;
27558;SDS011;15002;52.028;5.670;2022-11-20T03:08:51;16.48;;;8.45;;
27558;SDS011;15002;52.028;5.670;2022-11-20T03:11:17;14.00;;;7.63;;
27558;SDS011;15002;52.028;5.670;2022-11-20T03:13:42;14.77;;;8.38;;
27558;SDS011;15002;52.028;5.670;2022-11-20T03:16:09;16.83;;;8.38;;
27558;SDS011;15002;52.028;5.670;2022-11-20T03:18:40;13.15;;;7.97;;
27558;SDS011;15002;52.028;5.670;2022-11-20T03:21:06;14.85;;;8.80;;
27558;SDS011;15002;52.028;5.670;2022-11-20T03:23:33;13.35;;;7.60;;
27558;SDS011;15002;52.028;5.670;2022-11-20T03:26:32;16.50;;;7.63;;
27558;SDS011;15002;52.028;5.670;2022-11-20T03:28:53;13.95;;;7.63;;
27558;SDS011;15002;52.028;5.670;2022-11-20T03:31:21;16.17;;;8.32;;
27558;SDS011;15002;52.028;5.670;2022-11-20T03:33:49;15.45;;;8.32;;
27558;SDS011;15002;52.028;5.670;2022-11-20T03:36:15;14.68;;;8.15;;
27558;SDS011;15002;52.028;5.670;2022-11-20T03:38:43;13.68;;;7.75;;
27558;SDS011;15002;52.028;5.670;2022-11-20T03:41:10;14.52;;;8.73;;
27558;SDS011;15002;52.028;5.670;2022-11-20T03:43:46;13.40;;;7.18;;
27558;SDS011;15002;52.028;5.670;2022-11-20T03:46:19;17.05;;;8.20;;
27558;SDS011;15002;52.028;5.670;2022-11-20T03:48:45;15.73;;;7.75;;
27558;SDS011;15002;52.028;5.670;2022-11-20T03:51:15;13.18;;;7.70;;
27558;SDS011;15002;52.028;5.670;2022-11-20T03:53:42;14.40;;;7.57;;
27558;SDS011;15002;52.028;5.670;2022-11-20T03:56:10;13.70;;;7.88;;
27558;SDS011;15002;52.028;5.670;2022-11-20T03:58:37;16.30;;;8.27;;
27558;SDS011;15002;52.028;5.670;2022-11-20T04:01:07;16.02;;;8.43;;
27558;SDS011;15002;52.028;5.670;2022-11-20T04:03:34;14.68;;;7.82;;
27558;SDS011;15002;52.028;5.670;2022-11-20T04:06:01;16.33;;;8.68;;
27558;SDS011;15002;52.028;5.670;2022-11-20T04:08:30;15.20;;;8.37;;
27558;SDS011;15002;52.028;5.670;2022-11-20T04:10:56;13.93;;;8.07;;
27558;SDS011;15002;52.028;5.670;2022-11-20T04:13:32;14.65;;;8.18;;
27558;SDS011;15002;52.028;5.670;2022-11-20T04:15:58;14.65;;;7.90;;
27558;SDS011;15002;52.028;5.670;2022-11-20T04:18:23;12.80;;;7.32;;
27558;SDS011;15002;52.028;5.670;2022-11-20T04:20:49;14.63;;;8.23;;
27558;SDS011;15002;52.028;5.670;2022-11-20T04:23:14;17.00;;;7.78;;
27558;SDS011;15002;52.028;5.670;2022-11-20T04:25:40;15.70;;;7.60;;
27558;SDS011;15002;52.028;5.670;2022-11-20T04:28:06;16.73;;;7.97;;
27558;SDS011;15002;52.028;5.670;2022-11-20T04:30:31;14.23;;;7.57;;
27558;SDS011;15002;52.028;5.670;2022-11-20T04:32:57;13.43;;;8.13;;
27558;SDS011;15002;52.028;5.670;2022-11-20T04:35:22;14.35;;;8.30;;
27558;SDS011;15002;52.028;5.670;2022-11-20T04:37:50;13.65;;;8.10;;
27558;SDS011;15002;52.028;5.670;2022-11-20T04:40:17;16.60;;;8.93;;
27558;SDS011;15002;52.028;5.670;2022-11-20T04:42:42;14.63;;;7.50;;
27558;SDS011;15002;52.028;5.670;2022-11-20T04:45:08;14.40;;;8.52;;
27558;SDS011;15002;52.028;5.670;2022-11-20T04:47:34;12.93;;;8.02;;
27558;SDS011;15002;52.028;5.670;2022-11-20T04:49:59;16.48;;;7.93;;
27558;SDS011;15002;52.028;5.670;2022-11-20T04:52:25;12.52;;;7.57;;
27558;SDS011;15002;52.028;5.670;2022-11-20T04:54:50;13.52;;;7.57;;
27558;SDS011;15002;52.028;5.670;2022-11-20T04:57:17;13.30;;;7.43;;
27558;SDS011;15002;52.028;5.670;2022-11-20T04:59:44;16.45;;;8.35;;
27558;SDS011;15002;52.028;5.670;2022-11-20T05:02:10;16.83;;;8.07;;
27558;SDS011;15002;52.028;5.670;2022-11-20T05:04:36;18.98;;;8.48;;
27558;SDS011;15002;52.028;5.670;2022-11-20T05:07:02;15.02;;;8.23;;
27558;SDS011;15002;52.028;5.670;2022-11-20T05:09:28;16.77;;;8.48;;
27558;SDS011;15002;52.028;5.670;2022-11-20T05:11:54;15.93;;;8.07;;
27558;SDS011;15002;52.028;5.670;2022-11-20T05:14:20;13.50;;;8.43;;
27558;SDS011;15002;52.028;5.670;2022-11-20T05:16:45;16.30;;;7.95;;
27558;SDS011;15002;52.028;5.670;2022-11-20T05:19:11;13.23;;;7.47;;
27558;SDS011;15002;52.028;5.670;2022-11-20T05:21:36;16.95;;;9.07;;
27558;SDS011;15002;52.028;5.670;2022-11-20T05:24:02;15.35;;;8.60;;
27558;SDS011;15002;52.028;5.670;2022-11-20T05:26:28;17.08;;;8.40;;
27558;SDS011;15002;52.028;5.670;2022-11-20T05:28:53;17.38;;;8.63;;
27558;SDS011;15002;52.028;5.670;2022-11-20T05:31:20;13.75;;;7.78;;
27558;SDS011;15002;52.028;5.670;2022-11-20T05:33:47;15.35;;;8.63;;
27558;SDS011;15002;52.028;5.670;2022-11-20T05:36:13;18.00;;;9.05;;
27558;SDS011;15002;52.028;5.670;2022-11-20T05:38:39;16.15;;;9.05;;
27558;SDS011;15002;52.028;5.670;2022-11-20T05:41:13;13.38;;;8.38;;
27558;SDS011;15002;52.028;5.670;2022-11-20T05:43:41;16.35;;;8.68;;
27558;SDS011;15002;52.028;5.670;2022-11-20T05:46:08;18.05;;;9.98;;
27558;SDS011;15002;52.028;5.670;2022-11-20T05:48:35;17.90;;;9.02;;
27558;SDS011;15002;52.028;5.670;2022-11-20T05:51:02;18.48;;;9.77;;
27558;SDS011;15002;52.028;5.670;2022-11-20T05:53:28;19.40;;;8.90;;
27558;SDS011;15002;52.028;5.670;2022-11-20T05:55:58;16.60;;;9.43;;
27558;SDS011;15002;52.028;5.670;2022-11-20T05:58:31;18.30;;;8.85;;
27558;SDS011;15002;52.028;5.670;2022-11-20T06:01:05;15.63;;;8.70;;
27558;SDS011;15002;52.028;5.670;2022-11-20T06:03:48;14.80;;;7.93;;
27558;SDS011;15002;52.028;5.670;2022-11-20T06:06:15;15.80;;;8.60;;
27558;SDS011;15002;52.028;5.670;2022-11-20T06:08:42;19.30;;;9.00;;
27558;SDS011;15002;52.028;5.670;2022-11-20T06:11:08;16.50;;;8.40;;
27558;SDS011;15002;52.028;5.670;2022-11-20T06:13:35;17.25;;;8.95;;
27558;SDS011;15002;52.028;5.670;2022-11-20T06:16:01;17.05;;;9.18;;
27558;SDS011;15002;52.028;5.670;2022-11-20T06:18:27;14.55;;;9.38;;
27558;SDS011;15002;52.028;5.670;2022-11-20T06:21:06;18.52;;;9.75;;
27558;SDS011;15002;52.028;5.670;2022-11-20T06:23:34;16.27;;;8.57;;
27558;SDS011;15002;52.028;5.670;2022-11-20T06:26:01;17.83;;;8.88;;
27558;SDS011;15002;52.028;5.670;2022-11-20T06:28:31;20.75;;;9.73;;
27558;SDS011;15002;52.028;5.670;2022-11-20T06:30:57;15.52;;;9.52;;
27558;SDS011;15002;52.028;5.670;2022-11-20T06:33:23;15.93;;;9.50;;
27558;SDS011;15002;52.028;5.670;2022-11-20T06:35:49;16.98;;;10.20;;
27558;SDS011;15002;52.028;5.670;2022-11-20T06:38:15;19.33;;;10.55;;
27558;SDS011;15002;52.028;5.670;2022-11-20T06:40:41;20.02;;;11.93;;
27558;SDS011;15002;52.028;5.670;2022-11-20T06:43:10;23.63;;;12.23;;
27558;SDS011;15002;52.028;5.670;2022-11-20T06:45:36;19.42;;;11.82;;
27558;SDS011;15002;52.028;5.670;2022-11-20T06:48:02;21.98;;;11.05;;
27558;SDS011;15002;52.028;5.670;2022-11-20T06:50:28;18.83;;;10.45;;
27558;SDS011;15002;52.028;5.670;2022-11-20T06:52:53;15.95;;;9.20;;
27558;SDS011;15002;52.028;5.670;2022-11-20T06:55:19;18.63;;;9.00;;
27558;SDS011;15002;52.028;5.670;2022-11-20T06:57:45;14.77;;;8.43;;
27558;SDS011;15002;52.028;5.670;2022-11-20T07:00:10;14.82;;;8.88;;
27558;SDS011;15002;52.028;5.670;2022-11-20T07:02:36;18.48;;;9.18;;
27558;SDS011;15002;52.028;5.670;2022-11-20T07:05:02;18.50;;;8.88;;
27558;SDS011;15002;52.028;5.670;2022-11-20T07:07:28;16.52;;;9.25;;
27558;SDS011;15002;52.028;5.670;2022-11-20T07:09:54;20.42;;;10.10;;
27558;SDS011;15002;52.028;5.670;2022-11-20T07:12:19;17.10;;;9.27;;
27558;SDS011;15002;52.028;5.670;2022-11-20T07:14:45;18.48;;;9.45;;
27558;SDS011;15002;52.028;5.670;2022-11-20T07:17:11;18.27;;;9.38;;
27558;SDS011;15002;52.028;5.670;2022-11-20T07:19:37;17.83;;;9.57;;
27558;SDS011;15002;52.028;5.670;2022-11-20T07:22:02;19.30;;;10.05;;
27558;SDS011;15002;52.028;5.670;2022-11-20T07:24:28;15.90;;;9.95;;
27558;SDS011;15002;52.028;5.670;2022-11-20T07:26:53;17.52;;;9.80;;
27558;SDS011;15002;52.028;5.670;2022-11-20T07:29:19;19.20;;;10.50;;
27558;SDS011;15002;52.028;5.670;2022-11-20T07:31:45;19.10;;;10.43;;
27558;SDS011;15002;52.028;5.670;2022-11-20T07:34:10;16.45;;;8.82;;
27558;SDS011;15002;52.028;5.670;2022-11-20T07:36:36;18.65;;;9.43;;
27558;SDS011;15002;52.028;5.670;2022-11-20T07:39:01;20.70;;;11.07;;
27558;SDS011;15002;52.028;5.670;2022-11-20T07:41:27;18.58;;;10.80;;
27558;SDS011;15002;52.028;5.670;2022-11-20T07:43:53;17.60;;;9.35;;
27558;SDS011;15002;52.028;5.670;2022-11-20T07:46:19;17.42;;;10.43;;
27558;SDS011;15002;52.028;5.670;2022-11-20T07:48:45;20.25;;;10.65;;
27558;SDS011;15002;52.028;5.670;2022-11-20T07:51:10;18.63;;;10.10;;
27558;SDS011;15002;52.028;5.670;2022-11-20T07:53:36;17.50;;;10.48;;
27558;SDS011;15002;52.028;5.670;2022-11-20T07:56:02;21.23;;;11.52;;
27558;SDS011;15002;52.028;5.670;2022-11-20T07:58:28;20.30;;;11.32;;
27558;SDS011;15002;52.028;5.670;2022-11-20T08:00:55;19.75;;;10.98;;
27558;SDS011;15002;52.028;5.670;2022-11-20T08:03:21;19.63;;;11.75;;
27558;SDS011;15002;52.028;5.670;2022-11-20T08:05:46;20.65;;;12.02;;
27558;SDS011;15002;52.028;5.670;2022-11-20T08:08:12;19.25;;;11.52;;
27558;SDS011;15002;52.028;5.670;2022-11-20T08:10:38;23.25;;;12.68;;
27558;SDS011;15002;52.028;5.670;2022-11-20T08:13:03;21.48;;;11.90;;
27558;SDS011;15002;52.028;5.670;2022-11-20T08:15:50;26.52;;;12.80;;
27558;SDS011;15002;52.028;5.670;2022-11-20T08:18:16;24.80;;;12.20;;
27558;SDS011;15002;52.028;5.670;2022-11-20T08:20:42;22.67;;;13.35;;
27558;SDS011;15002;52.028;5.670;2022-11-20T08:23:10;20.20;;;11.60;;
27558;SDS011;15002;52.028;5.670;2022-11-20T08:25:36;20.48;;;11.30;;
27558;SDS011;15002;52.028;5.670;2022-11-20T08:28:07;24.23;;;13.18;;
27558;SDS011;15002;52.028;5.670;2022-11-20T08:30:34;22.98;;;12.57;;
27558;SDS011;15002;52.028;5.670;2022-11-20T08:33:02;23.85;;;13.07;;
27558;SDS011;15002;52.028;5.670;2022-11-20T08:35:32;23.77;;;11.93;;
27558;SDS011;15002;52.028;5.670;2022-11-20T08:38:02;21.65;;;12.23;;
27558;SDS011;15002;52.028;5.670;2022-11-20T08:40:29;25.85;;;12.52;;
27558;SDS011;15002;52.028;5.670;2022-11-20T08:42:55;22.55;;;12.15;;
27558;SDS011;15002;52.028;5.670;2022-11-20T08:45:21;20.55;;;12.70;;
27558;SDS011;15002;52.028;5.670;2022-11-20T08:47:47;24.63;;;13.13;;
27558;SDS011;15002;52.028;5.670;2022-11-20T08:50:14;22.15;;;12.63;;
27558;SDS011;15002;52.028;5.670;2022-11-20T08:52:40;23.15;;;13.60;;
27558;SDS011;15002;52.028;5.670;2022-11-20T08:55:06;24.45;;;13.60;;
27558;SDS011;15002;52.028;5.670;2022-11-20T08:57:33;33.28;;;15.93;;
27558;SDS011;15002;52.028;5.670;2022-11-20T09:00:00;28.15;;;14.73;;
27558;SDS011;15002;52.028;5.670;2022-11-20T09:02:26;29.08;;;15.18;;
27558;SDS011;15002;52.028;5.670;2022-11-20T09:04:52;29.92;;;14.90;;
27558;SDS011;15002;52.028;5.670;2022-11-20T09:07:18;26.70;;;14.57;;
27558;SDS011;15002;52.028;5.670;2022-11-20T09:09:44;22.35;;;14.05;;
27558;SDS011;15002;52.028;5.670;2022-11-20T09:12:10;26.85;;;14.75;;
27558;SDS011;15002;52.028;5.670;2022-11-20T09:14:36;28.33;;;14.77;;
27558;SDS011;15002;52.028;5.670;2022-11-20T09:17:01;24.05;;;13.32;;
27558;SDS011;15002;52.028;5.670;2022-11-20T09:19:27;26.65;;;14.95;;
27558;SDS011;15002;52.028;5.670;2022-11-20T09:21:52;26.25;;;14.45;;
27558;SDS011;15002;52.028;5.670;2022-11-20T09:24:18;31.40;;;14.35;;
27558;SDS011;15002;52.028;5.670;2022-11-20T09:26:46;26.67;;;14.57;;
27558;SDS011;15002;52.028;5.670;2022-11-20T09:29:11;27.30;;;14.30;;
27558;SDS011;15002;52.028;5.670;2022-11-20T09:31:37;25.65;;;14.93;;
27558;SDS011;15002;52.028;5.670;2022-11-20T09:34:03;26.23;;;14.88;;
27558;SDS011;15002;52.028;5.670;2022-11-20T09:36:29;26.50;;;14.52;;
27558;SDS011;15002;52.028;5.670;2022-11-20T09:38:54;29.70;;;15.57;;
27558;SDS011;15002;52.028;5.670;2022-11-20T09:52:43;24.65;;;14.27;;
27558;SDS011;15002;52.028;5.670;2022-11-20T09:55:14;26.83;;;15.57;;
27558;SDS011;15002;52.028;5.670;2022-11-20T09:57:42;28.40;;;15.50;;
27558;SDS011;15002;52.028;5.670;2022-11-20T10:00:11;25.95;;;15.27;;
27558;SDS011;15002;52.028;5.670;2022-11-20T10:05:48;29.75;;;14.43;;
27558;SDS011;15002;52.028;5.670;2022-11-20T10:13:40;28.65;;;15.20;;
27558;SDS011;15002;52.028;5.670;2022-11-20T10:24:36;28.42;;;15.23;;
27558;SDS011;15002;52.028;5.670;2022-11-20T10:29:36;26.90;;;15.02;;
27558;SDS011;15002;52.028;5.670;2022-11-20T10:32:15;30.10;;;15.35;;
27558;SDS011;15002;52.028;5.670;2022-11-20T10:34:48;32.67;;;16.70;;
27558;SDS011;15002;52.028;5.670;2022-11-20T10:37:22;30.77;;;16.35;;
27558;SDS011;15002;52.028;5.670;2022-11-20T10:39:57;31.77;;;16.17;;
27558;SDS011;15002;52.028;5.670;2022-11-20T10:45:02;32.80;;;16.65;;
27558;SDS011;15002;52.028;5.670;2022-11-20T10:47:38;29.63;;;16.10;;
27558;SDS011;15002;52.028;5.670;2022-11-20T10:50:04;32.25;;;16.80;;
27558;SDS011;15002;52.028;5.670;2022-11-20T11:01:19;31.05;;;17.25;;
27558;SDS011;15002;52.028;5.670;2022-11-20T11:03:49;30.38;;;17.23;;
27558;SDS011;15002;52.028;5.670;2022-11-20T11:06:22;32.53;;;18.70;;
27558;SDS011;15002;52.028;5.670;2022-11-20T11:09:01;32.35;;;17.90;;
27558;SDS011;15002;52.028;5.670;2022-11-20T11:11:32;29.45;;;17.20;;
27558;SDS011;15002;52.028;5.670;2022-11-20T11:14:08;33.58;;;18.15;;
27558;SDS011;15002;52.028;5.670;2022-11-20T11:16:35;37.75;;;19.65;;
27558;SDS011;15002;52.028;5.670;2022-11-20T11:19:13;32.92;;;18.23;;
27558;SDS011;15002;52.028;5.670;2022-11-20T11:21:45;38.08;;;19.77;;
27558;SDS011;15002;52.028;5.670;2022-11-20T11:24:25;35.65;;;19.92;;
27558;SDS011;15002;52.028;5.670;2022-11-20T11:26:53;30.80;;;17.48;;
27558;SDS011;15002;52.028;5.670;2022-11-20T11:29:25;31.65;;;18.38;;
27558;SDS011;15002;52.028;5.670;2022-11-20T11:32:08;32.50;;;18.38;;
27558;SDS011;15002;52.028;5.670;2022-11-20T11:34:38;34.75;;;17.88;;
27558;SDS011;15002;52.028;5.670;2022-11-20T11:37:04;32.28;;;18.67;;
27558;SDS011;15002;52.028;5.670;2022-11-20T11:39:35;34.35;;;17.73;;
27558;SDS011;15002;52.028;5.670;2022-11-20T11:42:05;34.10;;;18.10;;
27558;SDS011;15002;52.028;5.670;2022-11-20T11:44:33;31.98;;;18.48;;
27558;SDS011;15002;52.028;5.670;2022-11-20T11:47:22;32.60;;;18.33;;
27558;SDS011;15002;52.028;5.670;2022-11-20T11:55:09;33.13;;;18.75;;
27558;SDS011;15002;52.028;5.670;2022-11-20T12:00:17;32.80;;;17.42;;
27558;SDS011;15002;52.028;5.670;2022-11-20T12:10:45;35.13;;;19.27;;
27558;SDS011;15002;52.028;5.670;2022-11-20T12:15:59;33.03;;;18.08;;
27558;SDS011;15002;52.028;5.670;2022-11-20T12:18:26;35.65;;;18.48;;
27558;SDS011;15002;52.028;5.670;2022-11-20T12:30:09;31.25;;;16.92;;
27558;SDS011;15002;52.028;5.670;2022-11-20T12:43:30;28.25;;;16.90;;
27558;SDS011;15002;52.028;5.670;2022-11-20T12:46:25;31.65;;;16.83;;
27558;SDS011;15002;52.028;5.670;2022-11-20T13:00:19;28.77;;;16.90;;
27558;SDS011;15002;52.028;5.670;2022-11-20T13:05:37;28.40;;;16.83;;
27558;SDS011;15002;52.028;5.670;2022-11-20T13:08:15;30.50;;;16.05;;
27558;SDS011;15002;52.028;5.670;2022-11-20T13:16:38;32.53;;;18.20;;
27558;SDS011;15002;52.028;5.670;2022-11-20T13:19:37;31.20;;;16.95;;
27558;SDS011;15002;52.028;5.670;2022-11-20T13:22:04;31.23;;;16.20;;
27558;SDS011;15002;52.028;5.670;2022-11-20T13:24:30;33.08;;;17.05;;
27558;SDS011;15002;52.028;5.670;2022-11-20T13:29:25;33.53;;;17.90;;
27558;SDS011;15002;52.028;5.670;2022-11-20T13:32:00;34.80;;;18.70;;
27558;SDS011;15002;52.028;5.670;2022-11-20T13:37:26;33.17;;;18.17;;
27558;SDS011;15002;52.028;5.670;2022-11-20T13:42:35;35.38;;;19.17;;
27558;SDS011;15002;52.028;5.670;2022-11-20T13:45:09;35.60;;;19.30;;
27558;SDS011;15002;52.028;5.670;2022-11-20T13:47:51;34.83;;;19.70;;
27558;SDS011;15002;52.028;5.670;2022-11-20T13:50:18;35.20;;;19.75;;
27558;SDS011;15002;52.028;5.670;2022-11-20T13:52:59;34.83;;;19.92;;
27558;SDS011;15002;52.028;5.670;2022-11-20T14:01:08;37.33;;;20.23;;
27558;SDS011;15002;52.028;5.670;2022-11-20T14:03:40;35.97;;;19.48;;
27558;SDS011;15002;52.028;5.670;2022-11-20T14:06:10;39.40;;;20.95;;
27558;SDS011;15002;52.028;5.670;2022-11-20T14:08:50;34.13;;;19.83;;
27558;SDS011;15002;52.028;5.670;2022-11-20T14:11:25;35.20;;;20.88;;
27558;SDS011;15002;52.028;5.670;2022-11-20T14:13:57;38.78;;;20.63;;
27558;SDS011;15002;52.028;5.670;2022-11-20T14:16:32;35.92;;;19.63;;
27558;SDS011;15002;52.028;5.670;2022-11-20T14:21:47;35.22;;;20.33;;
27558;SDS011;15002;52.028;5.670;2022-11-20T14:24:18;38.50;;;20.98;;
27558;SDS011;15002;52.028;5.670;2022-11-20T14:26:45;35.92;;;20.10;;
27558;SDS011;15002;52.028;5.670;2022-11-20T14:29:13;43.33;;;21.33;;
27558;SDS011;15002;52.028;5.670;2022-11-20T14:31:41;38.58;;;20.00;;
27558;SDS011;15002;52.028;5.670;2022-11-20T14:34:15;38.00;;;21.45;;
27558;SDS011;15002;52.028;5.670;2022-11-20T14:36:46;41.83;;;21.50;;
27558;SDS011;15002;52.028;5.670;2022-11-20T14:39:12;46.28;;;24.05;;
27558;SDS011;15002;52.028;5.670;2022-11-20T14:41:52;44.05;;;21.90;;
27558;SDS011;15002;52.028;5.670;2022-11-20T14:44:31;42.95;;;22.33;;
27558;SDS011;15002;52.028;5.670;2022-11-20T14:46:59;46.30;;;23.45;;
27558;SDS011;15002;52.028;5.670;2022-11-20T14:49:26;45.10;;;21.42;;
27558;SDS011;15002;52.028;5.670;2022-11-20T14:51:59;44.58;;;23.63;;
27558;SDS011;15002;52.028;5.670;2022-11-20T14:54:26;44.88;;;23.98;;
27558;SDS011;15002;52.028;5.670;2022-11-20T14:56:54;43.40;;;23.35;;
27558;SDS011;15002;52.028;5.670;2022-11-20T14:59:22;44.55;;;23.70;;
27558;SDS011;15002;52.028;5.670;2022-11-20T15:02:00;44.72;;;22.95;;
27558;SDS011;15002;52.028;5.670;2022-11-20T15:04:27;50.00;;;22.70;;
27558;SDS011;15002;52.028;5.670;2022-11-20T15:06:54;46.92;;;22.58;;
27558;SDS011;15002;52.028;5.670;2022-11-20T15:09:22;43.42;;;23.98;;
27558;SDS011;15002;52.028;5.670;2022-11-20T15:11:55;40.72;;;21.90;;
27558;SDS011;15002;52.028;5.670;2022-11-20T15:14:22;44.33;;;22.70;;
27558;SDS011;15002;52.028;5.670;2022-11-20T15:16:49;45.97;;;24.05;;
27558;SDS011;15002;52.028;5.670;2022-11-20T15:19:17;48.53;;;24.35;;
27558;SDS011;15002;52.028;5.670;2022-11-20T15:21:47;44.20;;;23.17;;
27558;SDS011;15002;52.028;5.670;2022-11-20T15:24:13;49.50;;;23.67;;
27558;SDS011;15002;52.028;5.670;2022-11-20T15:26:39;45.15;;;23.33;;
27558;SDS011;15002;52.028;5.670;2022-11-20T15:29:11;50.67;;;24.77;;
27558;SDS011;15002;52.028;5.670;2022-11-20T15:31:39;46.85;;;24.05;;
27558;SDS011;15002;52.028;5.670;2022-11-20T15:34:13;46.45;;;24.13;;
27558;SDS011;15002;52.028;5.670;2022-11-20T15:36:40;49.15;;;25.10;;
27558;SDS011;15002;52.028;5.670;2022-11-20T15:39:06;47.17;;;24.52;;
27558;SDS011;15002;52.028;5.670;2022-11-20T15:41:33;46.83;;;24.23;;
27558;SDS011;15002;52.028;5.670;2022-11-20T15:44:05;53.28;;;24.35;;
27558;SDS011;15002;52.028;5.670;2022-11-20T15:46:32;50.40;;;25.10;;
27558;SDS011;15002;52.028;5.670;2022-11-20T15:49:05;55.15;;;25.35;;
27558;SDS011;15002;52.028;5.670;2022-11-20T15:51:34;50.15;;;26.35;;
27558;SDS011;15002;52.028;5.670;2022-11-20T15:54:03;50.42;;;25.17;;
27558;SDS011;15002;52.028;5.670;2022-11-20T15:56:36;48.72;;;23.55;;
27558;SDS011;15002;52.028;5.670;2022-11-20T15:59:02;46.83;;;23.60;;
27558;SDS011;15002;52.028;5.670;2022-11-20T16:01:28;49.75;;;24.83;;
27558;SDS011;15002;52.028;5.670;2022-11-20T16:03:53;45.33;;;23.50;;
27558;SDS011;15002;52.028;5.670;2022-11-20T16:06:19;44.15;;;22.58;;
27558;SDS011;15002;52.028;5.670;2022-11-20T16:08:45;43.80;;;23.10;;
27558;SDS011;15002;52.028;5.670;2022-11-20T16:11:14;48.70;;;22.77;;
27558;SDS011;15002;52.028;5.670;2022-11-20T16:16:29;40.72;;;20.98;;
27558;SDS011;15002;52.028;5.670;2022-11-20T16:18:57;36.22;;;20.73;;
27558;SDS011;15002;52.028;5.670;2022-11-20T16:21:24;44.58;;;23.25;;
27558;SDS011;15002;52.028;5.670;2022-11-20T16:26:25;43.97;;;21.40;;
27558;SDS011;15002;52.028;5.670;2022-11-20T16:28:51;39.25;;;21.27;;
27558;SDS011;15002;52.028;5.670;2022-11-20T16:31:17;42.05;;;23.30;;
27558;SDS011;15002;52.028;5.670;2022-11-20T16:33:50;44.30;;;22.65;;
27558;SDS011;15002;52.028;5.670;2022-11-20T16:36:17;44.95;;;21.95;;
27558;SDS011;15002;52.028;5.670;2022-11-20T16:38:44;46.70;;;23.85;;
27558;SDS011;15002;52.028;5.670;2022-11-20T16:41:09;46.35;;;24.05;;
27558;SDS011;15002;52.028;5.670;2022-11-20T16:46:11;43.03;;;22.63;;